sensor_id;sensor_type;location;lat;lon;timestamp;P1;durP1;ratioP1;P2;durP2;ratioP2
75450;SDS011;64029;48.244;9.188;2022-12-18T00:01:23;64.73;;;27.30;;
75450;SDS011;64029;48.244;9.188;2022-12-18T00:03:51;62.97;;;23.80;;
75450;SDS011;64029;48.244;9.188;2022-12-18T00:06:19;61.77;;;26.30;;
75450;SDS011;64029;48.244;9.188;2022-12-18T00:08:47;61.43;;;25.30;;
75450;SDS011;64029;48.244;9.188;2022-12-18T00:11:14;66.97;;;24.77;;
75450;SDS011;64029;48.244;9.188;2022-12-18T00:13:44;65.43;;;26.17;;
75450;SDS011;64029;48.244;9.188;2022-12-18T00:16:11;61.87;;;25.67;;
75450;SDS011;64029;48.244;9.188;2022-12-18T00:18:40;56.87;;;26.23;;
75450;SDS011;64029;48.244;9.188;2022-12-18T00:21:09;67.30;;;25.37;;
75450;SDS011;64029;48.244;9.188;2022-12-18T00:23:37;63.97;;;26.77;;
75450;SDS011;64029;48.244;9.188;2022-12-18T00:26:06;60.40;;;26.23;;
75450;SDS011;64029;48.244;9.188;2022-12-18T00:28:34;58.27;;;26.10;;
75450;SDS011;64029;48.244;9.188;2022-12-18T00:31:03;58.80;;;27.43;;
75450;SDS011;64029;48.244;9.188;2022-12-18T00:33:31;68.40;;;27.77;;
75450;SDS011;64029;48.244;9.188;2022-12-18T00:36:00;60.90;;;26.80;;
75450;SDS011;64029;48.244;9.188;2022-12-18T00:38:27;64.33;;;27.73;;
75450;SDS011;64029;48.244;9.188;2022-12-18T00:40:54;72.70;;;28.90;;
75450;SDS011;64029;48.244;9.188;2022-12-18T00:43:21;71.87;;;30.10;;
75450;SDS011;64029;48.244;9.188;2022-12-18T00:45:46;70.73;;;30.17;;
75450;SDS011;64029;48.244;9.188;2022-12-18T00:48:15;61.63;;;25.57;;
75450;SDS011;64029;48.244;9.188;2022-12-18T00:50:42;64.43;;;27.10;;
75450;SDS011;64029;48.244;9.188;2022-12-18T00:53:08;68.23;;;28.93;;
75450;SDS011;64029;48.244;9.188;2022-12-18T00:55:36;73.40;;;27.83;;
75450;SDS011;64029;48.244;9.188;2022-12-18T00:58:04;71.20;;;28.83;;
75450;SDS011;64029;48.244;9.188;2022-12-18T01:00:31;69.80;;;28.23;;
75450;SDS011;64029;48.244;9.188;2022-12-18T01:02:58;72.80;;;29.43;;
75450;SDS011;64029;48.244;9.188;2022-12-18T01:05:27;66.03;;;26.27;;
75450;SDS011;64029;48.244;9.188;2022-12-18T01:07:54;75.47;;;29.30;;
75450;SDS011;64029;48.244;9.188;2022-12-18T01:10:22;57.93;;;26.90;;
75450;SDS011;64029;48.244;9.188;2022-12-18T01:12:49;71.33;;;27.50;;
75450;SDS011;64029;48.244;9.188;2022-12-18T01:15:16;62.70;;;26.80;;
75450;SDS011;64029;48.244;9.188;2022-12-18T01:17:44;71.83;;;25.73;;
75450;SDS011;64029;48.244;9.188;2022-12-18T01:20:11;59.90;;;27.40;;
75450;SDS011;64029;48.244;9.188;2022-12-18T01:22:40;69.80;;;25.47;;
75450;SDS011;64029;48.244;9.188;2022-12-18T01:25:07;51.70;;;23.10;;
75450;SDS011;64029;48.244;9.188;2022-12-18T01:27:34;60.50;;;24.70;;
75450;SDS011;64029;48.244;9.188;2022-12-18T01:30:01;53.40;;;22.53;;
75450;SDS011;64029;48.244;9.188;2022-12-18T01:32:29;58.23;;;24.33;;
75450;SDS011;64029;48.244;9.188;2022-12-18T01:34:56;60.20;;;26.20;;
75450;SDS011;64029;48.244;9.188;2022-12-18T01:37:25;59.43;;;23.47;;
75450;SDS011;64029;48.244;9.188;2022-12-18T01:39:53;56.90;;;25.13;;
75450;SDS011;64029;48.244;9.188;2022-12-18T01:42:20;58.30;;;25.50;;
75450;SDS011;64029;48.244;9.188;2022-12-18T01:45:01;52.97;;;23.23;;
75450;SDS011;64029;48.244;9.188;2022-12-18T01:47:32;52.83;;;22.13;;
75450;SDS011;64029;48.244;9.188;2022-12-18T01:50:03;48.30;;;21.80;;
75450;SDS011;64029;48.244;9.188;2022-12-18T01:52:33;66.53;;;25.17;;
75450;SDS011;64029;48.244;9.188;2022-12-18T01:55:03;62.93;;;25.00;;
75450;SDS011;64029;48.244;9.188;2022-12-18T01:57:33;50.20;;;22.00;;
75450;SDS011;64029;48.244;9.188;2022-12-18T02:00:25;46.23;;;22.23;;
75450;SDS011;64029;48.244;9.188;2022-12-18T02:03:24;50.73;;;22.97;;
75450;SDS011;64029;48.244;9.188;2022-12-18T02:06:15;46.67;;;20.47;;
75450;SDS011;64029;48.244;9.188;2022-12-18T02:19:00;45.50;;;21.10;;
75450;SDS011;64029;48.244;9.188;2022-12-18T02:21:51;43.80;;;20.07;;
75450;SDS011;64029;48.244;9.188;2022-12-18T02:55:49;54.50;;;22.33;;
75450;SDS011;64029;48.244;9.188;2022-12-18T03:01:58;56.67;;;23.53;;
75450;SDS011;64029;48.244;9.188;2022-12-18T03:04:32;48.50;;;20.57;;
75450;SDS011;64029;48.244;9.188;2022-12-18T03:07:04;53.33;;;22.50;;
75450;SDS011;64029;48.244;9.188;2022-12-18T03:09:36;54.00;;;22.47;;
75450;SDS011;64029;48.244;9.188;2022-12-18T03:12:09;58.80;;;26.50;;
75450;SDS011;64029;48.244;9.188;2022-12-18T03:14:50;52.43;;;22.50;;
75450;SDS011;64029;48.244;9.188;2022-12-18T03:17:22;57.87;;;25.37;;
75450;SDS011;64029;48.244;9.188;2022-12-18T03:19:51;50.80;;;21.80;;
75450;SDS011;64029;48.244;9.188;2022-12-18T03:22:20;46.83;;;21.20;;
75450;SDS011;64029;48.244;9.188;2022-12-18T03:24:49;55.47;;;24.67;;
75450;SDS011;64029;48.244;9.188;2022-12-18T03:27:19;57.67;;;24.37;;
75450;SDS011;64029;48.244;9.188;2022-12-18T03:29:49;47.30;;;22.77;;
75450;SDS011;64029;48.244;9.188;2022-12-18T03:32:25;59.67;;;24.40;;
75450;SDS011;64029;48.244;9.188;2022-12-18T03:34:55;56.00;;;22.77;;
75450;SDS011;64029;48.244;9.188;2022-12-18T03:37:25;57.17;;;23.93;;
75450;SDS011;64029;48.244;9.188;2022-12-18T03:39:53;49.90;;;22.00;;
75450;SDS011;64029;48.244;9.188;2022-12-18T03:42:23;47.90;;;23.00;;
75450;SDS011;64029;48.244;9.188;2022-12-18T03:44:57;60.83;;;25.47;;
75450;SDS011;64029;48.244;9.188;2022-12-18T03:47:33;49.40;;;21.93;;
75450;SDS011;64029;48.244;9.188;2022-12-18T03:50:07;56.33;;;23.97;;
75450;SDS011;64029;48.244;9.188;2022-12-18T03:52:40;55.83;;;24.30;;
75450;SDS011;64029;48.244;9.188;2022-12-18T03:55:14;58.63;;;23.63;;
75450;SDS011;64029;48.244;9.188;2022-12-18T03:57:43;56.03;;;23.60;;
75450;SDS011;64029;48.244;9.188;2022-12-18T04:00:12;57.70;;;24.20;;
75450;SDS011;64029;48.244;9.188;2022-12-18T04:02:42;48.77;;;21.87;;
75450;SDS011;64029;48.244;9.188;2022-12-18T04:05:11;57.10;;;24.63;;
75450;SDS011;64029;48.244;9.188;2022-12-18T04:07:39;60.53;;;24.40;;
75450;SDS011;64029;48.244;9.188;2022-12-18T04:10:07;54.20;;;22.13;;
75450;SDS011;64029;48.244;9.188;2022-12-18T04:12:36;42.67;;;21.47;;
75450;SDS011;64029;48.244;9.188;2022-12-18T04:15:05;46.73;;;22.57;;
75450;SDS011;64029;48.244;9.188;2022-12-18T04:17:33;58.93;;;22.33;;
75450;SDS011;64029;48.244;9.188;2022-12-18T04:20:00;54.73;;;23.87;;
75450;SDS011;64029;48.244;9.188;2022-12-18T04:22:27;52.90;;;21.83;;
75450;SDS011;64029;48.244;9.188;2022-12-18T04:24:54;50.30;;;22.40;;
75450;SDS011;64029;48.244;9.188;2022-12-18T04:27:21;46.57;;;22.07;;
75450;SDS011;64029;48.244;9.188;2022-12-18T04:29:48;49.00;;;22.20;;
75450;SDS011;64029;48.244;9.188;2022-12-18T04:32:16;53.00;;;21.90;;
75450;SDS011;64029;48.244;9.188;2022-12-18T04:34:43;54.30;;;21.87;;
75450;SDS011;64029;48.244;9.188;2022-12-18T04:37:10;54.07;;;20.33;;
75450;SDS011;64029;48.244;9.188;2022-12-18T04:39:37;58.13;;;22.67;;
75450;SDS011;64029;48.244;9.188;2022-12-18T04:42:04;48.60;;;21.93;;
75450;SDS011;64029;48.244;9.188;2022-12-18T04:44:31;52.70;;;20.60;;
75450;SDS011;64029;48.244;9.188;2022-12-18T04:46:57;48.30;;;20.20;;
75450;SDS011;64029;48.244;9.188;2022-12-18T04:49:26;53.47;;;23.30;;
75450;SDS011;64029;48.244;9.188;2022-12-18T04:51:52;47.60;;;21.43;;
75450;SDS011;64029;48.244;9.188;2022-12-18T04:54:19;51.17;;;20.73;;
75450;SDS011;64029;48.244;9.188;2022-12-18T04:56:46;46.93;;;20.70;;
75450;SDS011;64029;48.244;9.188;2022-12-18T04:59:13;52.50;;;22.00;;
75450;SDS011;64029;48.244;9.188;2022-12-18T05:01:40;46.20;;;19.60;;
75450;SDS011;64029;48.244;9.188;2022-12-18T05:04:06;56.30;;;22.83;;
75450;SDS011;64029;48.244;9.188;2022-12-18T05:06:35;49.10;;;22.10;;
75450;SDS011;64029;48.244;9.188;2022-12-18T05:09:02;53.37;;;21.07;;
75450;SDS011;64029;48.244;9.188;2022-12-18T05:11:29;58.00;;;23.73;;
75450;SDS011;64029;48.244;9.188;2022-12-18T05:13:56;56.70;;;25.10;;
75450;SDS011;64029;48.244;9.188;2022-12-18T05:16:22;54.17;;;23.90;;
75450;SDS011;64029;48.244;9.188;2022-12-18T05:18:49;51.70;;;22.63;;
75450;SDS011;64029;48.244;9.188;2022-12-18T05:21:16;49.77;;;21.20;;
75450;SDS011;64029;48.244;9.188;2022-12-18T05:23:44;51.27;;;20.33;;
75450;SDS011;64029;48.244;9.188;2022-12-18T05:26:14;46.97;;;21.67;;
75450;SDS011;64029;48.244;9.188;2022-12-18T05:28:42;52.70;;;21.30;;
75450;SDS011;64029;48.244;9.188;2022-12-18T05:31:09;47.80;;;22.80;;
75450;SDS011;64029;48.244;9.188;2022-12-18T05:33:37;50.30;;;21.27;;
75450;SDS011;64029;48.244;9.188;2022-12-18T05:36:04;54.40;;;21.37;;
75450;SDS011;64029;48.244;9.188;2022-12-18T05:38:33;58.73;;;23.50;;
75450;SDS011;64029;48.244;9.188;2022-12-18T05:41:03;57.63;;;23.60;;
75450;SDS011;64029;48.244;9.188;2022-12-18T05:43:31;52.03;;;21.40;;
75450;SDS011;64029;48.244;9.188;2022-12-18T05:46:02;56.57;;;23.00;;
75450;SDS011;64029;48.244;9.188;2022-12-18T05:48:30;55.40;;;21.70;;
75450;SDS011;64029;48.244;9.188;2022-12-18T05:51:02;46.17;;;20.23;;
75450;SDS011;64029;48.244;9.188;2022-12-18T05:53:30;49.23;;;21.30;;
75450;SDS011;64029;48.244;9.188;2022-12-18T05:55:59;48.00;;;21.03;;
75450;SDS011;64029;48.244;9.188;2022-12-18T05:58:28;53.30;;;22.30;;
75450;SDS011;64029;48.244;9.188;2022-12-18T06:00:55;50.73;;;22.70;;
75450;SDS011;64029;48.244;9.188;2022-12-18T06:03:22;46.93;;;22.07;;
75450;SDS011;64029;48.244;9.188;2022-12-18T06:05:49;47.10;;;22.23;;
75450;SDS011;64029;48.244;9.188;2022-12-18T06:08:15;49.33;;;21.80;;
75450;SDS011;64029;48.244;9.188;2022-12-18T06:10:48;52.63;;;22.37;;
75450;SDS011;64029;48.244;9.188;2022-12-18T06:13:17;45.80;;;21.53;;
75450;SDS011;64029;48.244;9.188;2022-12-18T06:15:45;43.33;;;19.67;;
75450;SDS011;64029;48.244;9.188;2022-12-18T06:18:12;52.23;;;20.33;;
75450;SDS011;64029;48.244;9.188;2022-12-18T06:20:39;42.47;;;19.43;;
75450;SDS011;64029;48.244;9.188;2022-12-18T06:23:06;46.90;;;20.33;;
75450;SDS011;64029;48.244;9.188;2022-12-18T06:25:36;44.30;;;20.23;;
75450;SDS011;64029;48.244;9.188;2022-12-18T06:28:04;45.17;;;19.50;;
75450;SDS011;64029;48.244;9.188;2022-12-18T06:30:31;44.40;;;19.30;;
75450;SDS011;64029;48.244;9.188;2022-12-18T06:32:59;46.43;;;19.10;;
75450;SDS011;64029;48.244;9.188;2022-12-18T06:35:26;42.20;;;18.50;;
75450;SDS011;64029;48.244;9.188;2022-12-18T06:37:53;41.17;;;18.67;;
75450;SDS011;64029;48.244;9.188;2022-12-18T06:40:20;47.50;;;19.23;;
75450;SDS011;64029;48.244;9.188;2022-12-18T06:42:47;50.37;;;19.37;;
75450;SDS011;64029;48.244;9.188;2022-12-18T06:45:14;45.93;;;19.67;;
75450;SDS011;64029;48.244;9.188;2022-12-18T06:47:41;37.03;;;16.53;;
75450;SDS011;64029;48.244;9.188;2022-12-18T06:50:09;49.90;;;19.27;;
75450;SDS011;64029;48.244;9.188;2022-12-18T06:52:36;39.93;;;16.23;;
75450;SDS011;64029;48.244;9.188;2022-12-18T06:55:04;38.13;;;18.17;;
75450;SDS011;64029;48.244;9.188;2022-12-18T06:57:36;33.60;;;18.13;;
75450;SDS011;64029;48.244;9.188;2022-12-18T07:00:04;36.97;;;16.97;;
75450;SDS011;64029;48.244;9.188;2022-12-18T07:02:32;35.63;;;16.30;;
75450;SDS011;64029;48.244;9.188;2022-12-18T07:05:00;47.43;;;19.30;;
75450;SDS011;64029;48.244;9.188;2022-12-18T07:07:28;37.20;;;16.90;;
75450;SDS011;64029;48.244;9.188;2022-12-18T07:09:55;40.60;;;16.90;;
75450;SDS011;64029;48.244;9.188;2022-12-18T07:12:21;38.23;;;17.00;;
75450;SDS011;64029;48.244;9.188;2022-12-18T07:14:48;39.43;;;16.97;;
75450;SDS011;64029;48.244;9.188;2022-12-18T07:17:15;49.30;;;19.20;;
75450;SDS011;64029;48.244;9.188;2022-12-18T07:19:42;43.33;;;18.23;;
75450;SDS011;64029;48.244;9.188;2022-12-18T07:22:09;42.20;;;18.93;;
75450;SDS011;64029;48.244;9.188;2022-12-18T07:24:37;46.50;;;19.30;;
75450;SDS011;64029;48.244;9.188;2022-12-18T07:27:04;45.07;;;20.47;;
75450;SDS011;64029;48.244;9.188;2022-12-18T07:29:30;42.20;;;18.97;;
75450;SDS011;64029;48.244;9.188;2022-12-18T07:31:57;47.27;;;17.80;;
75450;SDS011;64029;48.244;9.188;2022-12-18T07:34:24;45.73;;;18.60;;
75450;SDS011;64029;48.244;9.188;2022-12-18T07:36:51;44.83;;;18.50;;
75450;SDS011;64029;48.244;9.188;2022-12-18T07:39:18;40.43;;;18.43;;
75450;SDS011;64029;48.244;9.188;2022-12-18T07:41:46;40.63;;;17.60;;
75450;SDS011;64029;48.244;9.188;2022-12-18T07:44:33;48.23;;;18.93;;
75450;SDS011;64029;48.244;9.188;2022-12-18T07:47:00;43.70;;;18.57;;
75450;SDS011;64029;48.244;9.188;2022-12-18T07:49:27;43.03;;;17.73;;
75450;SDS011;64029;48.244;9.188;2022-12-18T07:55:24;52.80;;;19.90;;
75450;SDS011;64029;48.244;9.188;2022-12-18T08:29:39;49.30;;;19.03;;
75450;SDS011;64029;48.244;9.188;2022-12-18T08:32:06;47.77;;;21.27;;
75450;SDS011;64029;48.244;9.188;2022-12-18T08:34:33;51.07;;;20.60;;
75450;SDS011;64029;48.244;9.188;2022-12-18T08:37:00;49.73;;;22.03;;
75450;SDS011;64029;48.244;9.188;2022-12-18T08:39:27;50.70;;;21.73;;
75450;SDS011;64029;48.244;9.188;2022-12-18T08:41:54;54.00;;;22.00;;
75450;SDS011;64029;48.244;9.188;2022-12-18T08:44:40;61.17;;;24.70;;
75450;SDS011;64029;48.244;9.188;2022-12-18T08:47:07;46.63;;;20.23;;
75450;SDS011;64029;48.244;9.188;2022-12-18T08:49:34;54.03;;;21.70;;
75450;SDS011;64029;48.244;9.188;2022-12-18T08:52:02;52.67;;;22.27;;
75450;SDS011;64029;48.244;9.188;2022-12-18T08:54:29;53.43;;;23.70;;
75450;SDS011;64029;48.244;9.188;2022-12-18T08:56:56;48.97;;;20.20;;
75450;SDS011;64029;48.244;9.188;2022-12-18T08:59:23;58.00;;;22.77;;
75450;SDS011;64029;48.244;9.188;2022-12-18T09:01:59;55.00;;;20.93;;
75450;SDS011;64029;48.244;9.188;2022-12-18T09:04:26;52.37;;;23.00;;
75450;SDS011;64029;48.244;9.188;2022-12-18T09:06:52;48.77;;;18.43;;
75450;SDS011;64029;48.244;9.188;2022-12-18T09:09:19;53.60;;;21.40;;
75450;SDS011;64029;48.244;9.188;2022-12-18T09:11:46;54.60;;;21.17;;
75450;SDS011;64029;48.244;9.188;2022-12-18T09:14:14;53.73;;;22.10;;
75450;SDS011;64029;48.244;9.188;2022-12-18T09:16:41;55.70;;;22.90;;
75450;SDS011;64029;48.244;9.188;2022-12-18T09:19:09;52.67;;;21.33;;
75450;SDS011;64029;48.244;9.188;2022-12-18T09:21:37;54.30;;;22.23;;
75450;SDS011;64029;48.244;9.188;2022-12-18T09:24:05;55.10;;;20.43;;
75450;SDS011;64029;48.244;9.188;2022-12-18T09:26:32;49.80;;;21.53;;
75450;SDS011;64029;48.244;9.188;2022-12-18T09:28:59;55.53;;;21.57;;
75450;SDS011;64029;48.244;9.188;2022-12-18T09:31:25;59.17;;;25.50;;
75450;SDS011;64029;48.244;9.188;2022-12-18T09:33:54;60.90;;;24.33;;
75450;SDS011;64029;48.244;9.188;2022-12-18T09:36:22;45.53;;;19.60;;
75450;SDS011;64029;48.244;9.188;2022-12-18T09:38:49;47.53;;;22.53;;
75450;SDS011;64029;48.244;9.188;2022-12-18T09:41:19;43.43;;;20.40;;
75450;SDS011;64029;48.244;9.188;2022-12-18T09:44:05;46.23;;;19.97;;
75450;SDS011;64029;48.244;9.188;2022-12-18T09:46:43;50.70;;;20.40;;
75450;SDS011;64029;48.244;9.188;2022-12-18T09:49:12;49.63;;;20.80;;
75450;SDS011;64029;48.244;9.188;2022-12-18T09:51:44;48.10;;;20.30;;
75450;SDS011;64029;48.244;9.188;2022-12-18T09:54:14;53.43;;;19.30;;
75450;SDS011;64029;48.244;9.188;2022-12-18T09:56:44;47.80;;;21.70;;
75450;SDS011;64029;48.244;9.188;2022-12-18T09:59:14;50.43;;;19.13;;
75450;SDS011;64029;48.244;9.188;2022-12-18T10:01:47;46.07;;;18.60;;
75450;SDS011;64029;48.244;9.188;2022-12-18T10:04:14;42.30;;;19.10;;
75450;SDS011;64029;48.244;9.188;2022-12-18T10:06:44;44.80;;;19.70;;
75450;SDS011;64029;48.244;9.188;2022-12-18T10:09:20;49.40;;;20.13;;
75450;SDS011;64029;48.244;9.188;2022-12-18T10:11:56;45.07;;;19.33;;
75450;SDS011;64029;48.244;9.188;2022-12-18T10:14:30;47.37;;;18.17;;
75450;SDS011;64029;48.244;9.188;2022-12-18T10:17:03;47.73;;;18.73;;
75450;SDS011;64029;48.244;9.188;2022-12-18T10:19:40;42.40;;;18.10;;
75450;SDS011;64029;48.244;9.188;2022-12-18T10:22:19;43.23;;;18.67;;
75450;SDS011;64029;48.244;9.188;2022-12-18T10:24:53;44.73;;;20.17;;
75450;SDS011;64029;48.244;9.188;2022-12-18T10:27:32;48.33;;;18.93;;
75450;SDS011;64029;48.244;9.188;2022-12-18T10:30:12;46.63;;;18.53;;
75450;SDS011;64029;48.244;9.188;2022-12-18T10:32:44;41.30;;;19.53;;
75450;SDS011;64029;48.244;9.188;2022-12-18T11:02:55;41.07;;;18.43;;
75450;SDS011;64029;48.244;9.188;2022-12-18T11:05:24;36.60;;;17.27;;
75450;SDS011;64029;48.244;9.188;2022-12-18T11:07:53;43.43;;;19.30;;
75450;SDS011;64029;48.244;9.188;2022-12-18T11:10:21;37.00;;;17.63;;
75450;SDS011;64029;48.244;9.188;2022-12-18T11:12:51;43.57;;;17.87;;
75450;SDS011;64029;48.244;9.188;2022-12-18T11:15:20;44.17;;;17.97;;
75450;SDS011;64029;48.244;9.188;2022-12-18T11:17:50;44.43;;;17.77;;
75450;SDS011;64029;48.244;9.188;2022-12-18T11:20:23;48.90;;;19.03;;
75450;SDS011;64029;48.244;9.188;2022-12-18T11:22:58;50.53;;;17.40;;
75450;SDS011;64029;48.244;9.188;2022-12-18T11:25:26;42.20;;;18.00;;
75450;SDS011;64029;48.244;9.188;2022-12-18T11:27:55;46.07;;;19.00;;
75450;SDS011;64029;48.244;9.188;2022-12-18T11:30:23;41.53;;;17.93;;
75450;SDS011;64029;48.244;9.188;2022-12-18T11:32:53;42.43;;;19.37;;
75450;SDS011;64029;48.244;9.188;2022-12-18T11:35:25;43.50;;;18.63;;
75450;SDS011;64029;48.244;9.188;2022-12-18T11:38:02;45.90;;;18.23;;
75450;SDS011;64029;48.244;9.188;2022-12-18T11:40:37;44.10;;;19.13;;
75450;SDS011;64029;48.244;9.188;2022-12-18T11:43:07;42.10;;;17.60;;
75450;SDS011;64029;48.244;9.188;2022-12-18T11:45:40;43.50;;;19.43;;
75450;SDS011;64029;48.244;9.188;2022-12-18T11:48:13;46.77;;;18.53;;
75450;SDS011;64029;48.244;9.188;2022-12-18T11:50:46;42.67;;;18.00;;
75450;SDS011;64029;48.244;9.188;2022-12-18T11:53:16;45.67;;;20.00;;
75450;SDS011;64029;48.244;9.188;2022-12-18T11:55:47;43.30;;;18.60;;
75450;SDS011;64029;48.244;9.188;2022-12-18T11:58:24;43.97;;;19.10;;
75450;SDS011;64029;48.244;9.188;2022-12-18T12:01:04;47.33;;;19.40;;
75450;SDS011;64029;48.244;9.188;2022-12-18T12:03:44;47.07;;;19.10;;
75450;SDS011;64029;48.244;9.188;2022-12-18T12:06:34;44.00;;;18.50;;
75450;SDS011;64029;48.244;9.188;2022-12-18T12:09:11;40.67;;;18.20;;
75450;SDS011;64029;48.244;9.188;2022-12-18T12:11:47;44.70;;;18.70;;
75450;SDS011;64029;48.244;9.188;2022-12-18T12:14:25;49.87;;;19.60;;
75450;SDS011;64029;48.244;9.188;2022-12-18T12:17:01;44.10;;;19.93;;
75450;SDS011;64029;48.244;9.188;2022-12-18T12:19:36;43.90;;;18.67;;
75450;SDS011;64029;48.244;9.188;2022-12-18T12:22:13;41.33;;;19.63;;
75450;SDS011;64029;48.244;9.188;2022-12-18T12:24:53;53.40;;;20.07;;
75450;SDS011;64029;48.244;9.188;2022-12-18T12:27:39;39.57;;;17.10;;
75450;SDS011;64029;48.244;9.188;2022-12-18T12:30:15;47.00;;;19.20;;
75450;SDS011;64029;48.244;9.188;2022-12-18T12:32:50;48.20;;;19.83;;
75450;SDS011;64029;48.244;9.188;2022-12-18T12:35:31;45.97;;;19.40;;
75450;SDS011;64029;48.244;9.188;2022-12-18T12:38:09;47.57;;;19.43;;
75450;SDS011;64029;48.244;9.188;2022-12-18T12:40:41;48.03;;;20.17;;
75450;SDS011;64029;48.244;9.188;2022-12-18T12:43:19;45.20;;;20.17;;
75450;SDS011;64029;48.244;9.188;2022-12-18T12:45:51;56.00;;;19.83;;
75450;SDS011;64029;48.244;9.188;2022-12-18T12:48:23;50.87;;;19.40;;
75450;SDS011;64029;48.244;9.188;2022-12-18T12:51:09;49.10;;;18.97;;
75450;SDS011;64029;48.244;9.188;2022-12-18T12:53:41;47.97;;;19.70;;
75450;SDS011;64029;48.244;9.188;2022-12-18T12:56:09;47.30;;;19.80;;
75450;SDS011;64029;48.244;9.188;2022-12-18T12:58:41;49.80;;;19.40;;
75450;SDS011;64029;48.244;9.188;2022-12-18T13:01:16;51.07;;;20.30;;
75450;SDS011;64029;48.244;9.188;2022-12-18T13:03:53;48.53;;;19.73;;
75450;SDS011;64029;48.244;9.188;2022-12-18T13:06:37;51.23;;;19.60;;
75450;SDS011;64029;48.244;9.188;2022-12-18T13:09:09;57.00;;;21.60;;
75450;SDS011;64029;48.244;9.188;2022-12-18T13:11:37;57.20;;;24.50;;
75450;SDS011;64029;48.244;9.188;2022-12-18T13:14:26;58.13;;;21.07;;
75450;SDS011;64029;48.244;9.188;2022-12-18T13:20:01;43.27;;;19.53;;
75450;SDS011;64029;48.244;9.188;2022-12-18T13:22:33;54.50;;;23.00;;
75450;SDS011;64029;48.244;9.188;2022-12-18T13:25:04;57.57;;;22.60;;
75450;SDS011;64029;48.244;9.188;2022-12-18T13:28:08;56.07;;;21.20;;
75450;SDS011;64029;48.244;9.188;2022-12-18T13:30:47;63.03;;;22.60;;
75450;SDS011;64029;48.244;9.188;2022-12-18T13:33:37;62.00;;;23.37;;
75450;SDS011;64029;48.244;9.188;2022-12-18T13:36:10;60.33;;;23.43;;
75450;SDS011;64029;48.244;9.188;2022-12-18T13:38:40;57.93;;;22.53;;
75450;SDS011;64029;48.244;9.188;2022-12-18T13:41:23;57.60;;;21.43;;
75450;SDS011;64029;48.244;9.188;2022-12-18T13:43:53;54.73;;;23.70;;
75450;SDS011;64029;48.244;9.188;2022-12-18T13:46:24;54.33;;;23.93;;
75450;SDS011;64029;48.244;9.188;2022-12-18T13:48:55;60.60;;;23.67;;
75450;SDS011;64029;48.244;9.188;2022-12-18T13:51:24;58.47;;;24.60;;
75450;SDS011;64029;48.244;9.188;2022-12-18T13:53:53;66.63;;;24.20;;
75450;SDS011;64029;48.244;9.188;2022-12-18T13:56:25;55.50;;;22.70;;
75450;SDS011;64029;48.244;9.188;2022-12-18T13:59:03;56.40;;;22.77;;
75450;SDS011;64029;48.244;9.188;2022-12-18T14:01:36;65.33;;;25.87;;
75450;SDS011;64029;48.244;9.188;2022-12-18T14:04:09;63.93;;;26.20;;
75450;SDS011;64029;48.244;9.188;2022-12-18T14:06:37;64.07;;;24.37;;
75450;SDS011;64029;48.244;9.188;2022-12-18T14:09:04;68.67;;;26.17;;
75450;SDS011;64029;48.244;9.188;2022-12-18T14:11:32;63.10;;;28.20;;
75450;SDS011;64029;48.244;9.188;2022-12-18T14:13:59;58.07;;;24.13;;
75450;SDS011;64029;48.244;9.188;2022-12-18T14:16:28;62.23;;;27.00;;
75450;SDS011;64029;48.244;9.188;2022-12-18T14:18:56;65.77;;;25.50;;
75450;SDS011;64029;48.244;9.188;2022-12-18T14:21:25;69.10;;;25.47;;
75450;SDS011;64029;48.244;9.188;2022-12-18T14:24:04;61.37;;;24.13;;
75450;SDS011;64029;48.244;9.188;2022-12-18T14:26:33;55.90;;;24.23;;
75450;SDS011;64029;48.244;9.188;2022-12-18T14:29:01;60.07;;;26.63;;
75450;SDS011;64029;48.244;9.188;2022-12-18T14:34:30;62.10;;;25.60;;
75450;SDS011;64029;48.244;9.188;2022-12-18T14:36:57;61.90;;;24.13;;
75450;SDS011;64029;48.244;9.188;2022-12-18T14:39:24;67.53;;;24.27;;
75450;SDS011;64029;48.244;9.188;2022-12-18T14:41:52;61.73;;;25.80;;
75450;SDS011;64029;48.244;9.188;2022-12-18T14:44:19;59.27;;;24.00;;
75450;SDS011;64029;48.244;9.188;2022-12-18T14:46:47;60.10;;;25.40;;
75450;SDS011;64029;48.244;9.188;2022-12-18T14:49:19;69.17;;;25.50;;
75450;SDS011;64029;48.244;9.188;2022-12-18T14:51:50;72.03;;;25.93;;
75450;SDS011;64029;48.244;9.188;2022-12-18T14:54:20;64.87;;;24.30;;
75450;SDS011;64029;48.244;9.188;2022-12-18T14:56:48;62.20;;;24.10;;
75450;SDS011;64029;48.244;9.188;2022-12-18T14:59:19;59.70;;;26.50;;
75450;SDS011;64029;48.244;9.188;2022-12-18T15:01:48;66.93;;;23.60;;
75450;SDS011;64029;48.244;9.188;2022-12-18T15:04:26;76.27;;;26.30;;
75450;SDS011;64029;48.244;9.188;2022-12-18T15:07:05;66.63;;;25.00;;
75450;SDS011;64029;48.244;9.188;2022-12-18T15:09:37;59.50;;;24.67;;
75450;SDS011;64029;48.244;9.188;2022-12-18T15:12:16;64.13;;;23.47;;
75450;SDS011;64029;48.244;9.188;2022-12-18T15:14:52;57.93;;;25.03;;
75450;SDS011;64029;48.244;9.188;2022-12-18T15:17:19;62.40;;;25.00;;
75450;SDS011;64029;48.244;9.188;2022-12-18T15:19:48;59.10;;;21.23;;
75450;SDS011;64029;48.244;9.188;2022-12-18T15:22:20;67.57;;;26.70;;
75450;SDS011;64029;48.244;9.188;2022-12-18T15:24:50;66.17;;;24.13;;
75450;SDS011;64029;48.244;9.188;2022-12-18T15:27:23;63.40;;;23.83;;
75450;SDS011;64029;48.244;9.188;2022-12-18T15:32:48;65.03;;;25.80;;
75450;SDS011;64029;48.244;9.188;2022-12-18T15:35:17;61.27;;;25.87;;
75450;SDS011;64029;48.244;9.188;2022-12-18T15:37:45;65.33;;;24.20;;
75450;SDS011;64029;48.244;9.188;2022-12-18T15:40:13;62.20;;;24.30;;
75450;SDS011;64029;48.244;9.188;2022-12-18T15:42:41;66.00;;;25.97;;
75450;SDS011;64029;48.244;9.188;2022-12-18T15:45:27;70.30;;;24.63;;
75450;SDS011;64029;48.244;9.188;2022-12-18T15:47:54;57.77;;;25.00;;
75450;SDS011;64029;48.244;9.188;2022-12-18T15:50:22;62.80;;;23.80;;
75450;SDS011;64029;48.244;9.188;2022-12-18T15:52:50;62.87;;;25.07;;
75450;SDS011;64029;48.244;9.188;2022-12-18T15:55:20;61.00;;;24.87;;
75450;SDS011;64029;48.244;9.188;2022-12-18T15:58:06;59.23;;;25.80;;
75450;SDS011;64029;48.244;9.188;2022-12-18T16:00:36;63.50;;;25.73;;
75450;SDS011;64029;48.244;9.188;2022-12-18T16:03:05;67.23;;;24.40;;
75450;SDS011;64029;48.244;9.188;2022-12-18T16:05:32;67.33;;;25.17;;
75450;SDS011;64029;48.244;9.188;2022-12-18T16:07:59;53.93;;;22.50;;
75450;SDS011;64029;48.244;9.188;2022-12-18T16:10:26;65.33;;;24.70;;
75450;SDS011;64029;48.244;9.188;2022-12-18T16:12:53;65.97;;;26.10;;
75450;SDS011;64029;48.244;9.188;2022-12-18T16:15:20;55.80;;;24.00;;
75450;SDS011;64029;48.244;9.188;2022-12-18T16:17:48;69.33;;;25.93;;
75450;SDS011;64029;48.244;9.188;2022-12-18T16:20:15;67.67;;;25.53;;
75450;SDS011;64029;48.244;9.188;2022-12-18T16:22:43;66.53;;;25.17;;
75450;SDS011;64029;48.244;9.188;2022-12-18T16:25:15;71.83;;;28.17;;
75450;SDS011;64029;48.244;9.188;2022-12-18T16:27:44;66.50;;;24.77;;
75450;SDS011;64029;48.244;9.188;2022-12-18T16:30:12;60.50;;;24.80;;
75450;SDS011;64029;48.244;9.188;2022-12-18T16:32:40;65.90;;;25.40;;
75450;SDS011;64029;48.244;9.188;2022-12-18T16:35:10;65.60;;;25.47;;
75450;SDS011;64029;48.244;9.188;2022-12-18T16:37:37;69.60;;;24.30;;